Time;durP1;ratioP1;P1;durP2;ratioP2;P2;SDS_P1;SDS_P2;PMS_P1;PMS_P2;Temp;Humidity;BMP_temperature;BMP_pressure;BME280_temperature;BME280_humidity;BME280_pressure;Samples;Min_cycle;Max_cycle;Signal;HPM_P1;HPM_P2
2021/12/11 00:01:02;;;;;;;;;12.33;9.67;;;;;;;;5071545;28;45311;-66
2021/12/11 00:03:30;;;;;;;;;8.33;8.33;;;;;;;;5075511;28;45354;-66
2021/12/11 00:05:57;;;;;;;;;7.00;7.00;;;;;;;;5059770;28;47554;-66
2021/12/11 00:08:24;;;;;;;;;16.33;10.00;;;;;;;;5073194;28;45390;-66
2021/12/11 00:11:02;;;;;;;;;12.33;10.67;;;;;;;;5073483;28;45288;-66
2021/12/11 00:13:29;;;;;;;;;8.33;6.00;;;;;;;;5076450;28;45472;-66
2021/12/11 00:15:55;;;;;;;;;9.00;7.00;;;;;;;;5074800;28;45332;-66
2021/12/11 00:18:22;;;;;;;;;7.67;7.67;;;;;;;;5077450;28;45272;-67
2021/12/11 00:20:50;;;;;;;;;10.00;7.00;;;;;;;;5075990;28;45346;-66
2021/12/11 00:23:23;;;;;;;;;8.00;7.33;;;;;;;;5076395;28;45410;-66
2021/12/11 00:25:48;;;;;;;;;12.33;8.33;;;;;;;;5076331;28;46101;-66
2021/12/11 00:28:14;;;;;;;;;12.33;9.00;;;;;;;;5079115;28;45445;-66
2021/12/11 00:30:41;;;;;;;;;8.00;7.67;;;;;;;;5081408;28;45483;-67
2021/12/11 00:33:11;;;;;;;;;6.33;2.67;;;;;;;;5075181;28;45430;-66
2021/12/11 00:35:37;;;;;;;;;5.33;3.00;;;;;;;;5080484;28;45511;-67
2021/12/11 00:38:04;;;;;;;;;10.00;10.00;;;;;;;;5060095;28;45541;-67
2021/12/11 00:40:29;;;;;;;;;14.67;9.33;;;;;;;;5083203;28;45430;-66
2021/12/11 00:42:57;;;;;;;;;7.00;6.00;;;;;;;;5078887;28;45374;-66
2021/12/11 00:45:24;;;;;;;;;9.00;7.00;;;;;;;;5080466;28;46170;-67
2021/12/11 00:47:52;;;;;;;;;8.33;8.33;;;;;;;;5075914;28;45439;-66
2021/12/11 00:50:19;;;;;;;;;1.67;0.33;;;;;;;;5081302;28;45307;-66
2021/12/11 00:52:47;;;;;;;;;2.67;2.67;;;;;;;;5077068;28;45470;-66
2021/12/11 00:55:30;;;;;;;;;8.33;8.33;;;;;;;;5068425;28;46425;-66
2021/12/11 00:58:14;;;;;;;;;10.67;7.67;;;;;;;;5074500;28;45404;-66
2021/12/11 01:00:44;;;;;;;;;12.67;7.67;;;;;;;;5084243;28;45352;-66
2021/12/11 01:03:10;;;;;;;;;9.00;9.00;;;;;;;;5070611;28;45360;-66
2021/12/11 01:05:38;;;;;;;;;21.00;15.00;;;;;;;;5079985;28;46062;-66
2021/12/11 01:08:23;;;;;;;;;7.67;7.00;;;;;;;;5078765;28;45329;-66
2021/12/11 01:10:51;;;;;;;;;5.00;2.33;;;;;;;;5076938;28;45356;-67
2021/12/11 01:13:21;;;;;;;;;8.00;8.00;;;;;;;;5066574;28;45496;-65
2021/12/11 01:15:53;;;;;;;;;9.33;6.00;;;;;;;;5066957;28;48134;-65
2021/12/11 01:20:56;;;;;;;;;9.00;5.33;;;;;;;;5079292;28;45394;-65
2021/12/11 01:25:58;;;;;;;;;6.67;5.33;;;;;;;;5060513;28;45433;-65
2021/12/11 01:28:24;;;;;;;;;12.00;7.67;;;;;;;;5058875;28;45382;-65
2021/12/11 01:30:49;;;;;;;;;10.00;8.00;;;;;;;;5061542;28;45602;-66
2021/12/11 01:33:14;;;;;;;;;6.33;6.33;;;;;;;;5053972;28;45369;-65
2021/12/11 01:35:40;;;;;;;;;6.00;5.67;;;;;;;;5060279;28;45475;-65
2021/12/11 01:38:08;;;;;;;;;7.67;6.00;;;;;;;;5054033;28;45526;-65
2021/12/11 01:40:34;;;;;;;;;15.00;10.00;;;;;;;;5060543;28;45329;-65
2021/12/11 01:43:00;;;;;;;;;10.67;8.33;;;;;;;;5062534;28;45474;-65
2021/12/11 01:45:26;;;;;;;;;9.33;5.67;;;;;;;;5058685;28;48211;-65
2021/12/11 01:47:51;;;;;;;;;6.33;6.00;;;;;;;;5052734;28;47688;-65
2021/12/11 01:50:29;;;;;;;;;10.00;3.33;;;;;;;;5047128;28;45177;-65
2021/12/11 01:53:11;;;;;;;;;7.67;6.67;;;;;;;;5065615;28;45395;-66
2021/12/11 01:55:43;;;;;;;;;8.33;6.00;;;;;;;;5051857;28;46006;-66
2021/12/11 01:58:11;;;;;;;;;6.00;6.00;;;;;;;;5051623;28;45314;-66
2021/12/11 02:00:38;;;;;;;;;6.00;5.00;;;;;;;;5052732;28;45234;-65
2021/12/11 02:03:07;;;;;;;;;7.67;5.33;;;;;;;;5057380;28;45532;-66
2021/12/11 02:05:34;;;;;;;;;7.00;7.00;;;;;;;;5058705;28;46194;-66
2021/12/11 02:08:02;;;;;;;;;6.33;6.33;;;;;;;;5064854;28;46056;-65
2021/12/11 02:10:31;;;;;;;;;6.00;6.00;;;;;;;;5061265;28;45242;-66
2021/12/11 02:12:57;;;;;;;;;5.00;5.00;;;;;;;;5065922;28;45409;-66
2021/12/11 02:15:29;;;;;;;;;9.33;5.33;;;;;;;;5055849;28;45950;-66
2021/12/11 02:18:01;;;;;;;;;8.67;6.00;;;;;;;;5059527;28;45441;-67
2021/12/11 02:20:31;;;;;;;;;6.00;6.00;;;;;;;;5057271;28;45400;-65
2021/12/11 02:22:57;;;;;;;;;5.00;5.00;;;;;;;;5061889;28;45679;-66
2021/12/11 02:25:26;;;;;;;;;11.00;6.00;;;;;;;;5066471;28;47949;-65
2021/12/11 02:27:55;;;;;;;;;10.33;9.00;;;;;;;;5077955;28;45338;-66
2021/12/11 02:30:31;;;;;;;;;7.67;6.67;;;;;;;;5079687;28;45196;-66
2021/12/11 02:32:56;;;;;;;;;8.33;6.00;;;;;;;;5074690;28;45484;-65
2021/12/11 02:35:21;;;;;;;;;5.33;5.33;;;;;;;;5075508;28;45319;-65
2021/12/11 02:37:50;;;;;;;;;6.67;5.33;;;;;;;;5076506;28;45370;-65
2021/12/11 02:40:19;;;;;;;;;10.33;7.67;;;;;;;;5075936;28;45389;-66
2021/12/11 02:42:54;;;;;;;;;5.00;4.00;;;;;;;;5078167;28;45480;-65
2021/12/11 02:45:27;;;;;;;;;7.67;6.00;;;;;;;;5077212;28;45409;-66
2021/12/11 02:47:59;;;;;;;;;8.00;3.33;;;;;;;;5077923;28;45362;-66
2021/12/11 02:50:24;;;;;;;;;5.33;5.33;;;;;;;;5061299;28;45375;-65
2021/12/11 02:52:54;;;;;;;;;9.67;6.00;;;;;;;;5067098;28;45492;-66
2021/12/11 02:55:34;;;;;;;;;8.33;5.67;;;;;;;;5053586;28;48081;-65
2021/12/11 02:58:03;;;;;;;;;8.00;8.00;;;;;;;;5067076;28;45357;-66
2021/12/11 03:00:37;;;;;;;;;9.00;5.00;;;;;;;;5054756;28;45960;-66
2021/12/11 03:03:06;;;;;;;;;8.33;5.67;;;;;;;;5074973;28;45327;-65
2021/12/11 03:05:42;;;;;;;;;13.00;9.00;;;;;;;;5078799;28;46192;-65
2021/12/11 03:08:10;;;;;;;;;6.00;6.00;;;;;;;;5077155;28;45449;-66
2021/12/11 03:10:37;;;;;;;;;8.00;5.00;;;;;;;;5075204;28;45314;-66
2021/12/11 03:13:04;;;;;;;;;5.67;5.67;;;;;;;;5077607;28;45287;-65
2021/12/11 03:15:29;;;;;;;;;8.00;6.00;;;;;;;;5075976;28;45319;-65
2021/12/11 03:17:55;;;;;;;;;5.00;5.00;;;;;;;;5059353;28;45707;-66
2021/12/11 03:20:23;;;;;;;;;6.33;4.33;;;;;;;;5077446;28;45600;-65
2021/12/11 03:22:49;;;;;;;;;11.00;5.67;;;;;;;;5077370;28;45409;-66
2021/12/11 03:25:17;;;;;;;;;7.00;5.67;;;;;;;;5078052;28;46445;-65
2021/12/11 03:27:42;;;;;;;;;6.00;6.00;;;;;;;;5075215;28;45310;-66
2021/12/11 03:30:11;;;;;;;;;10.67;8.33;;;;;;;;5072733;28;45323;-66
2021/12/11 03:32:36;;;;;;;;;8.00;6.00;;;;;;;;5067653;28;45591;-65
2021/12/11 03:35:03;;;;;;;;;5.00;5.00;;;;;;;;5072465;28;45530;-65
2021/12/11 03:37:28;;;;;;;;;8.00;6.00;;;;;;;;5078645;28;45435;-66
2021/12/11 03:39:54;;;;;;;;;8.67;6.33;;;;;;;;5056803;28;45333;-65
2021/12/11 03:42:23;;;;;;;;;9.33;5.67;;;;;;;;5062483;28;45540;-65
2021/12/11 03:44:49;;;;;;;;;6.00;6.00;;;;;;;;5072966;28;45401;-66
2021/12/11 03:47:16;;;;;;;;;8.33;6.33;;;;;;;;5081015;28;45445;-65
2021/12/11 03:49:41;;;;;;;;;11.33;9.67;;;;;;;;5073888;28;45387;-66
2021/12/11 03:52:08;;;;;;;;;10.00;6.00;;;;;;;;5080029;28;45243;-67
2021/12/11 03:54:34;;;;;;;;;4.67;4.67;;;;;;;;5053696;28;47011;-65
2021/12/11 03:57:00;;;;;;;;;5.33;5.00;;;;;;;;5074874;28;45394;-65
2021/12/11 03:59:26;;;;;;;;;8.00;5.33;;;;;;;;5071844;28;45363;-65
2021/12/11 04:01:54;;;;;;;;;6.67;6.67;;;;;;;;5075209;28;45544;-66
2021/12/11 04:04:27;;;;;;;;;6.67;5.00;;;;;;;;5072328;28;45426;-66
2021/12/11 04:06:53;;;;;;;;;5.00;5.00;;;;;;;;5080927;28;45326;-65
2021/12/11 04:09:18;;;;;;;;;10.00;6.00;;;;;;;;5072061;28;45312;-66
2021/12/11 04:11:44;;;;;;;;;6.33;4.33;;;;;;;;5060574;28;45286;-66
2021/12/11 04:14:14;;;;;;;;;3.67;3.33;;;;;;;;5059259;28;48064;-66
2021/12/11 04:16:40;;;;;;;;;7.67;5.67;;;;;;;;5079170;28;45290;-66
2021/12/11 04:19:06;;;;;;;;;6.33;2.33;;;;;;;;5076346;28;45334;-66
2021/12/11 04:21:32;;;;;;;;;5.00;5.00;;;;;;;;5080575;28;45283;-66
2021/12/11 04:23:57;;;;;;;;;9.33;5.33;;;;;;;;5053647;28;48335;-66
2021/12/11 04:26:23;;;;;;;;;6.33;5.33;;;;;;;;5081038;28;45400;-66
2021/12/11 04:28:48;;;;;;;;;7.00;6.00;;;;;;;;5057750;28;45390;-66
2021/12/11 04:31:22;;;;;;;;;9.33;9.00;;;;;;;;5083477;28;45476;-66
2021/12/11 04:33:49;;;;;;;;;6.00;6.00;;;;;;;;5066620;28;45358;-66
2021/12/11 04:36:17;;;;;;;;;11.33;6.00;;;;;;;;5082095;28;45420;-66
2021/12/11 04:38:42;;;;;;;;;10.33;5.67;;;;;;;;5068544;28;45369;-66
2021/12/11 04:41:09;;;;;;;;;13.33;11.00;;;;;;;;5064664;28;45576;-66
2021/12/11 04:43:35;;;;;;;;;9.00;8.00;;;;;;;;5060422;28;48238;-66
2021/12/11 04:46:04;;;;;;;;;9.67;5.67;;;;;;;;5082832;28;45401;-66
2021/12/11 04:48:55;;;;;;;;;6.33;6.33;;;;;;;;5067482;28;45251;-66
2021/12/11 04:51:39;;;;;;;;;7.67;5.67;;;;;;;;5073239;28;45338;-66
2021/12/11 05:02:53;;;;;;;;;7.33;7.33;;;;;;;;5077739;28;45462;-66
2021/12/11 05:05:26;;;;;;;;;7.33;6.00;;;;;;;;5073987;28;45583;-66
2021/12/11 05:08:11;;;;;;;;;5.67;5.67;;;;;;;;5075521;28;45425;-66
2021/12/11 05:10:39;;;;;;;;;10.33;9.00;;;;;;;;5073776;28;45259;-66
2021/12/11 05:13:05;;;;;;;;;11.00;9.33;;;;;;;;5077435;28;45397;-66
2021/12/11 05:15:33;;;;;;;;;13.00;9.00;;;;;;;;5078006;28;45438;-66
2021/12/11 05:17:59;;;;;;;;;8.67;8.67;;;;;;;;5081096;28;45429;-66
2021/12/11 05:20:26;;;;;;;;;9.00;9.00;;;;;;;;5080040;28;45367;-66
2021/12/11 05:22:52;;;;;;;;;8.00;5.33;;;;;;;;5079349;28;46554;-66
2021/12/11 05:25:17;;;;;;;;;12.00;8.00;;;;;;;;5067409;28;47327;-66
2021/12/11 05:27:43;;;;;;;;;14.00;12.00;;;;;;;;5077471;28;45394;-66
2021/12/11 05:30:12;;;;;;;;;10.00;5.33;;;;;;;;5074729;28;45322;-66
2021/12/11 05:32:38;;;;;;;;;8.33;6.00;;;;;;;;5079412;28;45408;-66
2021/12/11 05:35:04;;;;;;;;;6.33;6.33;;;;;;;;5074737;28;45870;-66
2021/12/11 05:37:29;;;;;;;;;5.00;5.00;;;;;;;;5081392;28;45362;-66
2021/12/11 05:39:54;;;;;;;;;7.00;6.00;;;;;;;;5074633;28;45546;-66
2021/12/11 05:42:19;;;;;;;;;8.67;5.67;;;;;;;;5082614;28;45713;-66
2021/12/11 05:44:45;;;;;;;;;12.00;8.33;;;;;;;;5068009;28;46945;-66
2021/12/11 05:47:10;;;;;;;;;8.33;6.00;;;;;;;;5081380;28;45469;-66
2021/12/11 05:49:36;;;;;;;;;11.33;9.33;;;;;;;;5073788;28;45378;-66
2021/12/11 05:52:03;;;;;;;;;8.00;6.00;;;;;;;;5083048;28;45173;-66
2021/12/11 05:54:29;;;;;;;;;9.00;8.00;;;;;;;;5066506;28;46349;-66
2021/12/11 05:56:59;;;;;;;;;9.00;9.00;;;;;;;;5059593;28;45416;-66
2021/12/11 05:59:24;;;;;;;;;6.67;6.33;;;;;;;;5055477;28;45606;-66
2021/12/11 06:01:49;;;;;;;;;8.67;6.67;;;;;;;;5078983;28;45388;-67
2021/12/11 06:04:20;;;;;;;;;9.00;6.00;;;;;;;;5076005;28;45651;-66
2021/12/11 06:06:45;;;;;;;;;9.67;8.33;;;;;;;;5082777;28;45322;-66
2021/12/11 06:09:12;;;;;;;;;8.67;6.00;;;;;;;;5075417;28;45879;-66
2021/12/11 06:11:38;;;;;;;;;9.00;5.00;;;;;;;;5062523;28;45357;-67
2021/12/11 06:14:04;;;;;;;;;8.67;8.67;;;;;;;;5075249;28;45507;-66
2021/12/11 06:16:30;;;;;;;;;11.67;8.33;;;;;;;;5062480;28;45860;-66
2021/12/11 06:18:56;;;;;;;;;12.33;6.00;;;;;;;;5060462;28;45385;-66
2021/12/11 06:21:22;;;;;;;;;8.67;7.67;;;;;;;;5082266;28;45417;-66
2021/12/11 06:23:47;;;;;;;;;6.00;4.33;;;;;;;;5075543;28;45220;-66
2021/12/11 06:26:12;;;;;;;;;9.00;5.00;;;;;;;;5081042;28;45340;-66
2021/12/11 06:28:37;;;;;;;;;8.00;4.00;;;;;;;;5069411;28;45356;-66
2021/12/11 06:31:04;;;;;;;;;6.33;6.33;;;;;;;;5063337;28;45241;-66
2021/12/11 06:33:30;;;;;;;;;9.33;5.33;;;;;;;;5071358;28;45386;-66
2021/12/11 06:35:57;;;;;;;;;8.00;4.33;;;;;;;;5080496;28;45325;-66
2021/12/11 06:38:25;;;;;;;;;13.00;8.67;;;;;;;;5073235;28;45374;-66
2021/12/11 06:40:51;;;;;;;;;4.00;4.00;;;;;;;;5081499;28;45361;-66
2021/12/11 06:43:17;;;;;;;;;9.00;4.67;;;;;;;;5059352;28;47540;-66
2021/12/11 06:45:42;;;;;;;;;7.00;5.00;;;;;;;;5066081;28;45234;-66
2021/12/11 06:48:07;;;;;;;;;7.67;7.33;;;;;;;;5068649;28;45321;-66
2021/12/11 06:50:33;;;;;;;;;10.00;6.67;;;;;;;;5053417;28;45247;-66
2021/12/11 06:53:03;;;;;;;;;13.33;7.67;;;;;;;;5073768;28;46553;-66
2021/12/11 06:55:28;;;;;;;;;10.67;8.67;;;;;;;;5069632;28;45386;-66
2021/12/11 06:57:53;;;;;;;;;15.00;9.33;;;;;;;;5060243;28;45471;-66
2021/12/11 07:00:19;;;;;;;;;12.33;10.00;;;;;;;;5055951;28;45461;-66
2021/12/11 07:02:44;;;;;;;;;7.67;7.33;;;;;;;;5060678;28;48170;-66
2021/12/11 07:05:10;;;;;;;;;6.00;6.00;;;;;;;;5061298;28;45422;-66
2021/12/11 07:07:37;;;;;;;;;10.33;6.00;;;;;;;;5077146;28;45642;-66
2021/12/11 07:10:05;;;;;;;;;9.67;8.33;;;;;;;;5076063;28;45250;-66
2021/12/11 07:12:30;;;;;;;;;8.00;8.00;;;;;;;;5077103;28;46372;-66
2021/12/11 07:14:55;;;;;;;;;9.00;8.00;;;;;;;;5058162;28;45312;-67
2021/12/11 07:17:21;;;;;;;;;8.00;8.00;;;;;;;;5079840;28;45397;-66
2021/12/11 07:19:47;;;;;;;;;12.00;7.33;;;;;;;;5077999;28;45318;-66
2021/12/11 07:22:13;;;;;;;;;6.00;6.00;;;;;;;;5079966;28;46211;-66
2021/12/11 07:24:44;;;;;;;;;9.67;8.00;;;;;;;;5076129;28;45361;-66
2021/12/11 07:27:10;;;;;;;;;6.00;5.00;;;;;;;;5061563;28;45524;-66
2021/12/11 07:29:36;;;;;;;;;7.67;5.67;;;;;;;;5056340;28;45354;-66
2021/12/11 07:32:01;;;;;;;;;8.67;6.00;;;;;;;;5062835;28;47348;-66
2021/12/11 07:34:26;;;;;;;;;6.00;6.00;;;;;;;;5071645;28;45342;-66
2021/12/11 07:36:52;;;;;;;;;14.33;8.33;;;;;;;;5081398;28;45479;-66
2021/12/11 07:39:18;;;;;;;;;9.00;9.00;;;;;;;;5056676;28;45497;-66
2021/12/11 07:41:44;;;;;;;;;8.67;6.00;;;;;;;;5081116;28;46717;-66
2021/12/11 07:44:09;;;;;;;;;8.67;8.67;;;;;;;;5062531;28;46156;-66
2021/12/11 07:46:35;;;;;;;;;7.00;6.00;;;;;;;;5082119;28;46429;-66
2021/12/11 07:49:03;;;;;;;;;11.67;8.67;;;;;;;;5065889;28;45544;-66
2021/12/11 07:51:29;;;;;;;;;12.00;8.67;;;;;;;;5073490;28;45683;-66
2021/12/11 07:53:54;;;;;;;;;8.00;6.33;;;;;;;;5067549;28;45180;-66
2021/12/11 07:56:20;;;;;;;;;12.00;12.00;;;;;;;;5074600;28;45448;-66
2021/12/11 07:58:46;;;;;;;;;11.67;9.67;;;;;;;;5071770;28;45278;-66
2021/12/11 08:01:12;;;;;;;;;16.33;12.00;;;;;;;;5074095;28;45423;-66
2021/12/11 08:03:37;;;;;;;;;9.00;9.00;;;;;;;;5074503;28;45388;-66
2021/12/11 08:06:04;;;;;;;;;13.67;9.33;;;;;;;;5079051;28;45380;-66
2021/12/11 08:08:29;;;;;;;;;9.67;9.67;;;;;;;;5058662;28;45370;-66
2021/12/11 08:10:57;;;;;;;;;17.67;14.00;;;;;;;;5053833;28;47265;-66
2021/12/11 08:13:22;;;;;;;;;20.00;14.33;;;;;;;;5073597;28;45835;-66
2021/12/11 08:15:49;;;;;;;;;19.00;14.00;;;;;;;;5075274;28;45239;-66
2021/12/11 08:18:15;;;;;;;;;20.67;18.00;;;;;;;;5078835;28;45133;-66
2021/12/11 08:20:42;;;;;;;;;25.50;20.75;;;;;;;;5064336;28;47003;-66
2021/12/11 08:23:08;;;;;;;;;13.67;13.67;;;;;;;;5057090;28;45441;-67
2021/12/11 08:25:35;;;;;;;;;10.67;10.00;;;;;;;;5078002;28;45554;-67
2021/12/11 08:28:01;;;;;;;;;13.50;12.00;;;;;;;;5073624;28;45360;-66
2021/12/11 08:30:28;;;;;;;;;12.67;12.33;;;;;;;;5073898;28;47144;-66
2021/12/11 08:32:53;;;;;;;;;8.67;5.67;;;;;;;;5075420;28;45268;-66
2021/12/11 08:35:18;;;;;;;;;12.33;12.00;;;;;;;;5058243;28;45428;-66
2021/12/11 08:37:45;;;;;;;;;11.33;11.33;;;;;;;;5057161;28;45639;-66
2021/12/11 08:40:14;;;;;;;;;14.00;12.33;;;;;;;;5074180;28;46736;-66
2021/12/11 08:42:40;;;;;;;;;14.00;13.00;;;;;;;;5061685;28;45400;-66
2021/12/11 08:45:09;;;;;;;;;14.33;12.33;;;;;;;;5070328;28;45272;-66
2021/12/11 08:47:35;;;;;;;;;20.67;15.67;;;;;;;;5076160;28;45386;-67
2021/12/11 08:50:01;;;;;;;;;21.33;20.67;;;;;;;;5055585;28;47075;-66
2021/12/11 08:52:29;;;;;;;;;19.33;14.67;;;;;;;;5061015;28;45392;-66
2021/12/11 08:54:56;;;;;;;;;24.67;15.33;;;;;;;;5064080;28;45404;-67
2021/12/11 08:57:23;;;;;;;;;13.33;13.00;;;;;;;;5081370;28;45354;-65
2021/12/11 08:59:50;;;;;;;;;13.33;9.33;;;;;;;;5069902;28;46169;-66
2021/12/11 09:02:21;;;;;;;;;15.33;14.33;;;;;;;;5081369;28;45369;-66
2021/12/11 09:04:58;;;;;;;;;13.50;13.00;;;;;;;;5080063;28;45424;-66
2021/12/11 09:07:42;;;;;;;;;16.67;10.00;;;;;;;;5080913;28;45524;-66
2021/12/11 09:10:13;;;;;;;;;15.00;9.33;;;;;;;;5075303;28;45425;-66
2021/12/11 09:12:50;;;;;;;;;20.00;19.00;;;;;;;;5078916;28;45455;-66
2021/12/11 09:15:24;;;;;;;;;17.33;14.00;;;;;;;;5076502;28;45460;-66
2021/12/11 09:17:52;;;;;;;;;17.00;14.00;;;;;;;;5077949;28;47750;-66
2021/12/11 09:20:24;;;;;;;;;14.67;12.33;;;;;;;;5079048;28;46688;-66
2021/12/11 09:23:02;;;;;;;;;19.00;15.00;;;;;;;;5078220;28;45462;-67
2021/12/11 09:25:34;;;;;;;;;12.33;11.67;;;;;;;;5080670;28;45333;-65
2021/12/11 09:27:59;;;;;;;;;14.33;11.00;;;;;;;;5058514;28;45579;-66
2021/12/11 09:30:30;;;;;;;;;14.00;6.00;;;;;;;;5057933;28;48267;-66
2021/12/11 09:33:01;;;;;;;;;14.00;10.00;;;;;;;;5077209;28;45338;-66
2021/12/11 09:35:31;;;;;;;;;19.00;11.00;;;;;;;;5077516;28;45339;-66
2021/12/11 09:38:05;;;;;;;;;6.00;6.00;;;;;;;;5078756;28;45639;-67
2021/12/11 09:40:36;;;;;;;;;8.00;6.00;;;;;;;;5079198;28;45502;-66
2021/12/11 09:43:02;;;;;;;;;13.33;9.33;;;;;;;;5077787;28;45353;-68
2021/12/11 09:45:29;;;;;;;;;12.67;11.00;;;;;;;;5079671;28;45383;-66
2021/12/11 09:47:58;;;;;;;;;11.33;7.33;;;;;;;;5064540;28;45529;-66
2021/12/11 09:50:26;;;;;;;;;11.00;11.00;;;;;;;;5053873;28;46226;-67
2021/12/11 09:52:52;;;;;;;;;15.67;11.67;;;;;;;;5060562;28;45910;-67
2021/12/11 09:55:22;;;;;;;;;4.33;4.33;;;;;;;;5085007;28;45203;-67
2021/12/11 09:57:50;;;;;;;;;20.00;14.67;;;;;;;;5078798;28;45554;-67
2021/12/11 10:00:19;;;;;;;;;12.00;11.00;;;;;;;;5055283;28;47046;-67
2021/12/11 10:02:45;;;;;;;;;18.33;12.67;;;;;;;;5078158;28;45272;-67
2021/12/11 10:05:56;;;;;;;;;15.67;13.67;;;;;;;;5080896;28;45434;-67
2021/12/11 10:08:36;;;;;;;;;17.67;12.00;;;;;;;;5073963;28;45382;-68
2021/12/11 10:11:04;;;;;;;;;20.67;15.67;;;;;;;;5076710;28;47345;-67
2021/12/11 10:13:32;;;;;;;;;26.00;24.25;;;;;;;;5077377;28;45455;-66
2021/12/11 10:15:58;;;;;;;;;25.75;21.00;;;;;;;;5078186;28;45379;-66
2021/12/11 10:18:24;;;;;;;;;18.67;14.67;;;;;;;;5080826;28;45695;-67
2021/12/11 10:20:53;;;;;;;;;23.00;21.25;;;;;;;;5078869;28;46592;-67
2021/12/11 10:23:22;;;;;;;;;19.00;15.00;;;;;;;;5071259;28;45436;-67
2021/12/11 10:25:48;;;;;;;;;17.33;14.67;;;;;;;;5077678;28;45271;-67
2021/12/11 10:28:18;;;;;;;;;25.00;24.25;;;;;;;;5065651;28;45503;-69
2021/12/11 10:30:46;;;;;;;;;14.00;13.67;;;;;;;;5080889;28;46495;-66
2021/12/11 10:33:13;;;;;;;;;20.00;17.00;;;;;;;;5064711;28;45412;-66
2021/12/11 10:35:41;;;;;;;;;21.33;17.33;;;;;;;;5082155;28;45242;-67
2021/12/11 10:38:07;;;;;;;;;14.00;11.00;;;;;;;;5060026;28;45434;-67
2021/12/11 10:40:37;;;;;;;;;16.33;13.00;;;;;;;;5079522;28;46089;-67
2021/12/11 10:43:05;;;;;;;;;22.33;18.00;;;;;;;;5066390;28;45255;-67
2021/12/11 10:45:30;;;;;;;;;11.67;11.67;;;;;;;;5066776;28;45384;-65
2021/12/11 10:47:58;;;;;;;;;11.00;6.33;;;;;;;;5079459;28;45675;-66
2021/12/11 10:50:26;;;;;;;;;10.00;7.00;;;;;;;;5061914;28;47670;-66
2021/12/11 10:52:52;;;;;;;;;12.67;9.67;;;;;;;;5076066;28;45188;-66
2021/12/11 10:55:19;;;;;;;;;12.33;10.33;;;;;;;;5072622;28;45275;-66
2021/12/11 10:57:44;;;;;;;;;8.00;8.00;;;;;;;;5060303;28;45293;-66
2021/12/11 11:00:14;;;;;;;;;13.00;9.00;;;;;;;;5073952;28;46325;-66
2021/12/11 11:02:40;;;;;;;;;9.67;9.67;;;;;;;;5077275;28;45436;-66
2021/12/11 11:05:11;;;;;;;;;8.67;8.00;;;;;;;;5080225;28;45406;-66
2021/12/11 11:07:36;;;;;;;;;9.33;9.33;;;;;;;;5077473;27;45445;-66
2021/12/11 11:10:07;;;;;;;;;12.67;7.00;;;;;;;;5056812;28;47448;-66
2021/12/11 11:12:32;;;;;;;;;16.67;14.33;;;;;;;;5077087;28;45376;-67
2021/12/11 11:14:58;;;;;;;;;13.33;11.00;;;;;;;;5076312;28;45373;-67
2021/12/11 11:17:25;;;;;;;;;11.67;8.67;;;;;;;;5080405;28;45153;-67
2021/12/11 11:19:52;;;;;;;;;6.00;6.00;;;;;;;;5073375;28;45553;-67
2021/12/11 11:22:19;;;;;;;;;6.00;6.00;;;;;;;;5070036;28;45415;-67
2021/12/11 11:24:46;;;;;;;;;8.67;6.33;;;;;;;;5067804;28;45299;-67
2021/12/11 11:27:12;;;;;;;;;14.00;11.00;;;;;;;;5080705;28;45375;-67
2021/12/11 11:29:42;;;;;;;;;7.67;7.00;;;;;;;;5070864;28;45698;-68
2021/12/11 11:32:10;;;;;;;;;9.33;7.67;;;;;;;;5080837;28;45392;-67
2021/12/11 11:34:40;;;;;;;;;13.50;12.00;;;;;;;;5071741;28;45751;-67
2021/12/11 11:37:06;;;;;;;;;14.67;8.00;;;;;;;;5081534;28;45294;-68
2021/12/11 11:39:31;;;;;;;;;13.00;8.33;;;;;;;;5082161;28;46130;-68
2021/12/11 11:41:58;;;;;;;;;8.67;6.67;;;;;;;;5081562;28;45368;-67
2021/12/11 11:44:24;;;;;;;;;9.00;9.00;;;;;;;;5054359;28;45372;-67
2021/12/11 11:46:51;;;;;;;;;5.00;5.00;;;;;;;;5074533;28;45393;-67
2021/12/11 11:49:17;;;;;;;;;11.33;6.67;;;;;;;;5065937;28;46091;-67
2021/12/11 11:51:45;;;;;;;;;7.67;5.33;;;;;;;;5075155;28;45538;-65
2021/12/11 11:54:12;;;;;;;;;7.00;7.00;;;;;;;;5070177;28;45363;-66
2021/12/11 11:56:40;;;;;;;;;10.00;8.00;;;;;;;;5076146;28;45500;-66
2021/12/11 11:59:07;;;;;;;;;13.67;9.00;;;;;;;;5073599;28;46210;-66
2021/12/11 12:01:36;;;;;;;;;8.67;7.33;;;;;;;;5077121;28;45337;-66
2021/12/11 12:04:02;;;;;;;;;7.00;5.33;;;;;;;;5074593;28;45339;-66
2021/12/11 12:06:31;;;;;;;;;2.67;2.67;;;;;;;;5083085;28;45286;-66
2021/12/11 12:08:57;;;;;;;;;10.33;6.67;;;;;;;;5073662;28;46368;-66
2021/12/11 12:11:24;;;;;;;;;6.67;4.00;;;;;;;;5060028;28;45697;-66
2021/12/11 12:13:49;;;;;;;;;7.00;7.00;;;;;;;;5074974;28;45603;-66
2021/12/11 12:16:15;;;;;;;;;7.00;4.67;;;;;;;;5060432;28;45184;-66
2021/12/11 12:18:42;;;;;;;;;6.00;6.00;;;;;;;;5079389;28;45303;-66
2021/12/11 12:21:08;;;;;;;;;13.33;7.67;;;;;;;;5060200;28;45321;-66
2021/12/11 12:23:33;;;;;;;;;7.33;6.00;;;;;;;;5070316;28;45527;-66
2021/12/11 12:26:01;;;;;;;;;9.33;7.33;;;;;;;;5081747;28;45644;-66
2021/12/11 12:28:27;;;;;;;;;8.33;8.33;;;;;;;;5059877;28;47187;-66
2021/12/11 12:30:57;;;;;;;;;9.00;8.33;;;;;;;;5068032;28;45271;-66
2021/12/11 12:33:22;;;;;;;;;11.33;8.00;;;;;;;;5076584;28;45318;-66
2021/12/11 12:35:48;;;;;;;;;13.67;7.00;;;;;;;;5082457;28;45303;-66
2021/12/11 12:38:15;;;;;;;;;5.00;5.00;;;;;;;;5078487;28;46504;-66
2021/12/11 12:40:45;;;;;;;;;8.67;6.67;;;;;;;;5081966;28;45280;-66
2021/12/11 12:43:20;;;;;;;;;10.33;8.00;;;;;;;;5074731;28;45168;-66
2021/12/11 12:45:47;;;;;;;;;9.00;8.00;;;;;;;;5054925;28;46272;-67
2021/12/11 12:48:15;;;;;;;;;8.33;7.33;;;;;;;;5074362;28;46162;-67
2021/12/11 12:50:58;;;;;;;;;9.67;8.33;;;;;;;;5055648;28;45330;-67
2021/12/11 12:53:24;;;;;;;;;7.67;7.67;;;;;;;;5077562;28;45362;-67
2021/12/11 12:55:52;;;;;;;;;10.00;8.00;;;;;;;;5075708;28;45346;-67
2021/12/11 12:58:20;;;;;;;;;10.00;8.00;;;;;;;;5078001;28;46442;-67
2021/12/11 13:00:48;;;;;;;;;8.00;8.00;;;;;;;;5076122;28;45675;-67
2021/12/11 13:03:16;;;;;;;;;5.67;5.67;;;;;;;;5079156;28;45547;-69
2021/12/11 13:05:53;;;;;;;;;10.00;7.67;;;;;;;;5082749;28;45449;-66
2021/12/11 13:08:29;;;;;;;;;9.00;7.00;;;;;;;;5071770;28;47365;-66
2021/12/11 13:11:06;;;;;;;;;12.67;7.33;;;;;;;;5078838;28;45394;-66
2021/12/11 13:13:32;;;;;;;;;7.00;7.00;;;;;;;;5060712;28;45436;-67
2021/12/11 13:16:00;;;;;;;;;10.33;6.67;;;;;;;;5067696;28;45413;-67
2021/12/11 13:18:29;;;;;;;;;11.33;8.67;;;;;;;;5075747;28;45381;-67
2021/12/11 13:21:02;;;;;;;;;14.00;10.00;;;;;;;;5078870;28;45334;-67
2021/12/11 13:23:27;;;;;;;;;13.67;9.67;;;;;;;;5072924;28;46570;-67
2021/12/11 13:25:56;;;;;;;;;12.67;8.00;;;;;;;;5079846;28;45289;-68
2021/12/11 13:28:23;;;;;;;;;9.67;7.00;;;;;;;;5074657;28;45556;-67
2021/12/11 13:30:52;;;;;;;;;6.00;6.00;;;;;;;;5064394;28;45349;-68
2021/12/11 13:33:19;;;;;;;;;12.33;6.67;;;;;;;;5076458;28;45404;-67
2021/12/11 13:35:44;;;;;;;;;10.00;10.00;;;;;;;;5063795;28;45515;-67
2021/12/11 13:38:12;;;;;;;;;8.67;7.67;;;;;;;;5078576;28;45308;-67
2021/12/11 13:40:40;;;;;;;;;10.00;7.00;;;;;;;;5080832;28;45498;-67
2021/12/11 13:43:06;;;;;;;;;6.00;5.33;;;;;;;;5061297;28;45472;-68
2021/12/11 13:45:33;;;;;;;;;9.33;7.00;;;;;;;;5068319;28;45250;-67
2021/12/11 13:47:59;;;;;;;;;10.00;10.00;;;;;;;;5075742;28;45638;-67
2021/12/11 13:50:29;;;;;;;;;8.00;4.67;;;;;;;;5069073;28;45360;-68
2021/12/11 13:52:55;;;;;;;;;14.67;10.33;;;;;;;;5061402;28;45503;-69
2021/12/11 13:55:20;;;;;;;;;7.33;5.33;;;;;;;;5074855;28;46355;-68
2021/12/11 13:57:46;;;;;;;;;8.67;8.33;;;;;;;;5077666;28;45541;-69
2021/12/11 14:00:16;;;;;;;;;13.67;8.00;;;;;;;;5075123;28;45256;-68
2021/12/11 14:02:42;;;;;;;;;8.00;3.33;;;;;;;;5060334;28;45772;-68
2021/12/11 14:05:07;;;;;;;;;15.00;7.67;;;;;;;;5063822;28;45349;-68
2021/12/11 14:07:37;;;;;;;;;9.00;5.33;;;;;;;;5060986;28;48236;-68
2021/12/11 14:10:06;;;;;;;;;5.67;2.67;;;;;;;;5076792;28;45169;-68
2021/12/11 14:12:32;;;;;;;;;12.00;8.00;;;;;;;;5064455;28;45290;-68
2021/12/11 14:14:58;;;;;;;;;10.00;8.33;;;;;;;;5060545;28;45351;-68
2021/12/11 14:17:25;;;;;;;;;14.00;11.00;;;;;;;;5065979;28;47898;-68
2021/12/11 14:19:50;;;;;;;;;8.00;7.67;;;;;;;;5066198;28;45825;-68
2021/12/11 14:22:17;;;;;;;;;9.00;7.00;;;;;;;;5081410;28;46517;-68
2021/12/11 14:24:43;;;;;;;;;13.00;8.33;;;;;;;;5054440;28;45406;-69
2021/12/11 14:27:13;;;;;;;;;10.00;5.33;;;;;;;;5061770;28;45776;-68
2021/12/11 14:29:39;;;;;;;;;9.67;8.00;;;;;;;;5053802;28;45341;-68
2021/12/11 14:32:05;;;;;;;;;8.00;8.00;;;;;;;;5062259;28;45455;-68
2021/12/11 14:34:30;;;;;;;;;12.33;8.00;;;;;;;;5050804;28;45560;-68
2021/12/11 14:36:58;;;;;;;;;9.00;7.00;;;;;;;;5061953;28;46318;-69
2021/12/11 14:39:25;;;;;;;;;8.33;5.00;;;;;;;;5052379;28;45281;-69
2021/12/11 14:41:52;;;;;;;;;12.33;7.00;;;;;;;;5062405;28;45549;-69
2021/12/11 14:44:27;;;;;;;;;11.33;7.00;;;;;;;;5052743;28;45412;-69
2021/12/11 14:46:55;;;;;;;;;14.33;9.00;;;;;;;;5061081;27;45540;-70
2021/12/11 14:49:20;;;;;;;;;13.67;8.00;;;;;;;;5052741;28;46330;-68
2021/12/11 14:51:46;;;;;;;;;9.67;7.67;;;;;;;;5055086;28;45325;-69